sensor_id;sensor_type;location;lat;lon;timestamp;temperature;humidity
47813;DHT22;34221;45.296;9.516;2022-07-24T00:00:05;28.30;78.90
47813;DHT22;34221;45.296;9.516;2022-07-24T00:00:27;28.40;78.80
47813;DHT22;34221;45.296;9.516;2022-07-24T00:00:42;28.30;79.00
47813;DHT22;34221;45.296;9.516;2022-07-24T00:00:56;28.30;78.80
47813;DHT22;34221;45.296;9.516;2022-07-24T00:01:12;28.30;78.90
47813;DHT22;34221;45.296;9.516;2022-07-24T00:01:27;28.30;79.00
47813;DHT22;34221;45.296;9.516;2022-07-24T00:01:42;28.30;79.00
47813;DHT22;34221;45.296;9.516;2022-07-24T00:01:57;28.30;78.90
47813;DHT22;34221;45.296;9.516;2022-07-24T00:02:13;28.30;79.10
47813;DHT22;34221;45.296;9.516;2022-07-24T00:02:28;28.30;79.20
47813;DHT22;34221;45.296;9.516;2022-07-24T00:02:43;28.30;79.30
47813;DHT22;34221;45.296;9.516;2022-07-24T00:02:58;28.30;79.10
47813;DHT22;34221;45.296;9.516;2022-07-24T00:03:13;28.30;79.10
47813;DHT22;34221;45.296;9.516;2022-07-24T00:03:28;28.30;78.90
47813;DHT22;34221;45.296;9.516;2022-07-24T00:03:43;28.30;79.00
47813;DHT22;34221;45.296;9.516;2022-07-24T00:03:58;28.20;78.80
47813;DHT22;34221;45.296;9.516;2022-07-24T00:04:13;28.20;79.00
47813;DHT22;34221;45.296;9.516;2022-07-24T00:04:28;28.20;79.10
47813;DHT22;34221;45.296;9.516;2022-07-24T00:04:43;28.20;79.10
47813;DHT22;34221;45.296;9.516;2022-07-24T00:04:58;28.20;79.10
47813;DHT22;34221;45.296;9.516;2022-07-24T00:05:15;28.20;79.80
47813;DHT22;34221;45.296;9.516;2022-07-24T00:05:30;28.20;79.10
47813;DHT22;34221;45.296;9.516;2022-07-24T00:05:45;28.20;79.00
47813;DHT22;34221;45.296;9.516;2022-07-24T00:06:00;28.20;79.00
47813;DHT22;34221;45.296;9.516;2022-07-24T00:06:15;28.20;79.20
47813;DHT22;34221;45.296;9.516;2022-07-24T00:06:31;28.20;79.40
47813;DHT22;34221;45.296;9.516;2022-07-24T00:06:45;28.20;79.20
47813;DHT22;34221;45.296;9.516;2022-07-24T00:07:01;28.20;79.10
47813;DHT22;34221;45.296;9.516;2022-07-24T00:07:17;28.20;79.20
47813;DHT22;34221;45.296;9.516;2022-07-24T00:07:31;28.20;79.30
47813;DHT22;34221;45.296;9.516;2022-07-24T00:07:49;28.20;79.40
47813;DHT22;34221;45.296;9.516;2022-07-24T00:08:04;28.20;79.50
47813;DHT22;34221;45.296;9.516;2022-07-24T00:08:19;28.20;79.60
47813;DHT22;34221;45.296;9.516;2022-07-24T00:08:34;28.20;79.40
47813;DHT22;34221;45.296;9.516;2022-07-24T00:08:49;28.20;79.70
47813;DHT22;34221;45.296;9.516;2022-07-24T00:09:05;28.20;79.40
47813;DHT22;34221;45.296;9.516;2022-07-24T00:09:20;28.20;79.50
47813;DHT22;34221;45.296;9.516;2022-07-24T00:09:35;28.20;79.60
47813;DHT22;34221;45.296;9.516;2022-07-24T00:09:50;28.20;79.70
47813;DHT22;34221;45.296;9.516;2022-07-24T00:10:06;28.20;79.20
47813;DHT22;34221;45.296;9.516;2022-07-24T00:10:21;28.20;79.20
47813;DHT22;34221;45.296;9.516;2022-07-24T00:10:36;28.30;79.40
47813;DHT22;34221;45.296;9.516;2022-07-24T00:10:51;28.30;79.10
47813;DHT22;34221;45.296;9.516;2022-07-24T00:11:06;28.20;78.90
47813;DHT22;34221;45.296;9.516;2022-07-24T00:11:21;28.30;79.10
47813;DHT22;34221;45.296;9.516;2022-07-24T00:11:36;28.30;79.80
47813;DHT22;34221;45.296;9.516;2022-07-24T00:11:51;28.20;79.00
47813;DHT22;34221;45.296;9.516;2022-07-24T00:12:07;28.30;78.70
47813;DHT22;34221;45.296;9.516;2022-07-24T00:12:22;28.30;78.90
47813;DHT22;34221;45.296;9.516;2022-07-24T00:12:38;28.30;79.10
47813;DHT22;34221;45.296;9.516;2022-07-24T00:12:53;28.30;78.90
47813;DHT22;34221;45.296;9.516;2022-07-24T00:13:08;28.30;78.90
47813;DHT22;34221;45.296;9.516;2022-07-24T00:13:22;28.30;78.80
47813;DHT22;34221;45.296;9.516;2022-07-24T00:13:37;28.20;78.80
47813;DHT22;34221;45.296;9.516;2022-07-24T00:13:53;28.20;78.70
47813;DHT22;34221;45.296;9.516;2022-07-24T00:14:08;28.30;78.80
47813;DHT22;34221;45.296;9.516;2022-07-24T00:14:23;28.20;78.90
47813;DHT22;34221;45.296;9.516;2022-07-24T00:14:38;28.20;79.10
47813;DHT22;34221;45.296;9.516;2022-07-24T00:14:53;28.20;79.00
47813;DHT22;34221;45.296;9.516;2022-07-24T00:15:08;28.20;79.70
47813;DHT22;34221;45.296;9.516;2022-07-24T00:15:23;28.20;79.20
47813;DHT22;34221;45.296;9.516;2022-07-24T00:15:38;28.20;79.20
47813;DHT22;34221;45.296;9.516;2022-07-24T00:15:53;28.20;79.10
47813;DHT22;34221;45.296;9.516;2022-07-24T00:16:08;28.20;79.00
47813;DHT22;34221;45.296;9.516;2022-07-24T00:16:23;28.20;79.00
47813;DHT22;34221;45.296;9.516;2022-07-24T00:16:38;28.20;79.00
47813;DHT22;34221;45.296;9.516;2022-07-24T00:16:54;28.20;79.10
47813;DHT22;34221;45.296;9.516;2022-07-24T00:17:09;28.20;79.40
47813;DHT22;34221;45.296;9.516;2022-07-24T00:17:24;28.20;79.10
47813;DHT22;34221;45.296;9.516;2022-07-24T00:17:39;28.20;78.90
47813;DHT22;34221;45.296;9.516;2022-07-24T00:17:54;28.10;78.90
47813;DHT22;34221;45.296;9.516;2022-07-24T00:18:09;28.10;79.10
47813;DHT22;34221;45.296;9.516;2022-07-24T00:18:24;28.10;79.10
47813;DHT22;34221;45.296;9.516;2022-07-24T00:18:39;28.10;79.20
47813;DHT22;34221;45.296;9.516;2022-07-24T00:18:54;28.10;79.30
47813;DHT22;34221;45.296;9.516;2022-07-24T00:19:10;28.10;79.40
47813;DHT22;34221;45.296;9.516;2022-07-24T00:19:25;28.10;79.40
47813;DHT22;34221;45.296;9.516;2022-07-24T00:19:40;28.10;79.30
47813;DHT22;34221;45.296;9.516;2022-07-24T00:19:55;28.10;79.30
47813;DHT22;34221;45.296;9.516;2022-07-24T00:20:10;28.20;79.50
47813;DHT22;34221;45.296;9.516;2022-07-24T00:20:26;28.10;79.40
47813;DHT22;34221;45.296;9.516;2022-07-24T00:20:41;28.20;79.30
47813;DHT22;34221;45.296;9.516;2022-07-24T00:20:56;28.10;79.40
47813;DHT22;34221;45.296;9.516;2022-07-24T00:21:11;28.10;79.40
47813;DHT22;34221;45.296;9.516;2022-07-24T00:21:26;28.20;80.20
47813;DHT22;34221;45.296;9.516;2022-07-24T00:21:41;28.10;79.60
47813;DHT22;34221;45.296;9.516;2022-07-24T00:21:55;28.10;79.40
47813;DHT22;34221;45.296;9.516;2022-07-24T00:22:11;28.20;79.60
47813;DHT22;34221;45.296;9.516;2022-07-24T00:22:26;28.10;79.40
47813;DHT22;34221;45.296;9.516;2022-07-24T00:22:42;28.10;79.40
47813;DHT22;34221;45.296;9.516;2022-07-24T00:22:57;28.10;79.30
47813;DHT22;34221;45.296;9.516;2022-07-24T00:23:12;28.20;79.50
47813;DHT22;34221;45.296;9.516;2022-07-24T00:23:27;28.20;79.40
47813;DHT22;34221;45.296;9.516;2022-07-24T00:23:42;28.20;79.50
47813;DHT22;34221;45.296;9.516;2022-07-24T00:23:57;28.10;79.20
47813;DHT22;34221;45.296;9.516;2022-07-24T00:24:12;28.10;79.30
47813;DHT22;34221;45.296;9.516;2022-07-24T00:24:27;28.10;79.20
47813;DHT22;34221;45.296;9.516;2022-07-24T00:24:42;28.20;79.30
47813;DHT22;34221;45.296;9.516;2022-07-24T00:24:57;28.20;79.30
47813;DHT22;34221;45.296;9.516;2022-07-24T00:25:12;28.10;79.30
47813;DHT22;34221;45.296;9.516;2022-07-24T00:25:27;28.10;79.40
47813;DHT22;34221;45.296;9.516;2022-07-24T00:25:42;28.10;79.40
47813;DHT22;34221;45.296;9.516;2022-07-24T00:25:57;28.10;79.50
47813;DHT22;34221;45.296;9.516;2022-07-24T00:26:12;28.10;79.60
47813;DHT22;34221;45.296;9.516;2022-07-24T00:26:28;28.10;79.40
47813;DHT22;34221;45.296;9.516;2022-07-24T00:26:43;28.10;79.40
47813;DHT22;34221;45.296;9.516;2022-07-24T00:26:57;28.10;79.50
47813;DHT22;34221;45.296;9.516;2022-07-24T00:27:12;28.10;79.60
47813;DHT22;34221;45.296;9.516;2022-07-24T00:27:28;28.10;79.70
47813;DHT22;34221;45.296;9.516;2022-07-24T00:27:43;28.10;79.70
47813;DHT22;34221;45.296;9.516;2022-07-24T00:27:58;28.10;79.60
47813;DHT22;34221;45.296;9.516;2022-07-24T00:28:13;28.10;79.50
47813;DHT22;34221;45.296;9.516;2022-07-24T00:28:28;28.10;79.60
47813;DHT22;34221;45.296;9.516;2022-07-24T00:28:43;28.10;79.80
47813;DHT22;34221;45.296;9.516;2022-07-24T00:28:58;28.10;79.60
47813;DHT22;34221;45.296;9.516;2022-07-24T00:29:12;28.10;79.80
47813;DHT22;34221;45.296;9.516;2022-07-24T00:29:28;28.10;79.90
47813;DHT22;34221;45.296;9.516;2022-07-24T00:29:43;28.10;79.80
47813;DHT22;34221;45.296;9.516;2022-07-24T00:29:58;28.00;79.80
47813;DHT22;34221;45.296;9.516;2022-07-24T00:30:13;28.00;79.70
47813;DHT22;34221;45.296;9.516;2022-07-24T00:30:28;28.10;79.90
47813;DHT22;34221;45.296;9.516;2022-07-24T00:30:43;28.00;79.60
47813;DHT22;34221;45.296;9.516;2022-07-24T00:30:58;28.10;79.80
47813;DHT22;34221;45.296;9.516;2022-07-24T00:31:13;28.10;79.70
47813;DHT22;34221;45.296;9.516;2022-07-24T00:31:27;28.10;79.70
47813;DHT22;34221;45.296;9.516;2022-07-24T00:31:42;28.00;79.60
47813;DHT22;34221;45.296;9.516;2022-07-24T00:31:59;28.00;79.60
47813;DHT22;34221;45.296;9.516;2022-07-24T00:32:14;28.10;79.70
47813;DHT22;34221;45.296;9.516;2022-07-24T00:32:29;28.10;79.80
47813;DHT22;34221;45.296;9.516;2022-07-24T00:32:44;28.10;79.70
47813;DHT22;34221;45.296;9.516;2022-07-24T00:32:59;28.10;79.80
47813;DHT22;34221;45.296;9.516;2022-07-24T00:33:14;28.10;79.70
47813;DHT22;34221;45.296;9.516;2022-07-24T00:33:29;28.10;79.80
47813;DHT22;34221;45.296;9.516;2022-07-24T00:33:44;28.10;79.80
47813;DHT22;34221;45.296;9.516;2022-07-24T00:34:00;28.10;79.80
47813;DHT22;34221;45.296;9.516;2022-07-24T00:34:15;28.10;79.80
47813;DHT22;34221;45.296;9.516;2022-07-24T00:34:30;28.10;80.10
47813;DHT22;34221;45.296;9.516;2022-07-24T00:34:45;28.10;79.80
47813;DHT22;34221;45.296;9.516;2022-07-24T00:34:59;28.00;79.80
47813;DHT22;34221;45.296;9.516;2022-07-24T00:35:14;28.10;79.70
47813;DHT22;34221;45.296;9.516;2022-07-24T00:35:29;28.00;79.70
47813;DHT22;34221;45.296;9.516;2022-07-24T00:35:44;28.00;79.80
47813;DHT22;34221;45.296;9.516;2022-07-24T00:35:59;28.00;79.90
47813;DHT22;34221;45.296;9.516;2022-07-24T00:36:15;28.00;80.00
47813;DHT22;34221;45.296;9.516;2022-07-24T00:36:30;28.10;80.00
47813;DHT22;34221;45.296;9.516;2022-07-24T00:36:45;28.10;80.00
47813;DHT22;34221;45.296;9.516;2022-07-24T00:37:01;28.00;80.00
47813;DHT22;34221;45.296;9.516;2022-07-24T00:37:16;28.00;80.20
47813;DHT22;34221;45.296;9.516;2022-07-24T00:37:31;28.00;80.20
47813;DHT22;34221;45.296;9.516;2022-07-24T00:37:46;28.00;80.20
47813;DHT22;34221;45.296;9.516;2022-07-24T00:38:01;28.00;80.20
47813;DHT22;34221;45.296;9.516;2022-07-24T00:38:17;28.00;80.10
47813;DHT22;34221;45.296;9.516;2022-07-24T00:38:32;28.00;80.20
47813;DHT22;34221;45.296;9.516;2022-07-24T00:38:47;28.00;80.20
47813;DHT22;34221;45.296;9.516;2022-07-24T00:39:03;28.00;80.30
47813;DHT22;34221;45.296;9.516;2022-07-24T00:39:18;28.00;80.20
47813;DHT22;34221;45.296;9.516;2022-07-24T00:39:33;28.00;80.20
47813;DHT22;34221;45.296;9.516;2022-07-24T00:39:48;28.00;80.20
47813;DHT22;34221;45.296;9.516;2022-07-24T00:40:03;28.00;80.20
47813;DHT22;34221;45.296;9.516;2022-07-24T00:40:19;28.00;80.20
47813;DHT22;34221;45.296;9.516;2022-07-24T00:40:34;28.00;80.20
47813;DHT22;34221;45.296;9.516;2022-07-24T00:40:49;28.00;80.30
47813;DHT22;34221;45.296;9.516;2022-07-24T00:41:04;28.10;80.30
47813;DHT22;34221;45.296;9.516;2022-07-24T00:41:20;28.00;80.30
47813;DHT22;34221;45.296;9.516;2022-07-24T00:41:35;28.00;80.30
47813;DHT22;34221;45.296;9.516;2022-07-24T00:41:50;28.00;80.20
47813;DHT22;34221;45.296;9.516;2022-07-24T00:42:07;28.10;80.50
47813;DHT22;34221;45.296;9.516;2022-07-24T00:42:23;28.00;80.20
47813;DHT22;34221;45.296;9.516;2022-07-24T00:42:38;28.00;80.40
47813;DHT22;34221;45.296;9.516;2022-07-24T00:42:53;28.10;80.40
47813;DHT22;34221;45.296;9.516;2022-07-24T00:43:08;28.00;80.20
47813;DHT22;34221;45.296;9.516;2022-07-24T00:43:23;28.00;80.20
47813;DHT22;34221;45.296;9.516;2022-07-24T00:44:14;28.00;80.50
47813;DHT22;34221;45.296;9.516;2022-07-24T00:44:30;28.10;80.30
47813;DHT22;34221;45.296;9.516;2022-07-24T00:44:45;28.10;80.20
47813;DHT22;34221;45.296;9.516;2022-07-24T00:45:00;28.00;80.10
47813;DHT22;34221;45.296;9.516;2022-07-24T00:45:15;28.00;80.30
47813;DHT22;34221;45.296;9.516;2022-07-24T00:45:30;28.00;80.20
47813;DHT22;34221;45.296;9.516;2022-07-24T00:45:45;28.00;80.20
47813;DHT22;34221;45.296;9.516;2022-07-24T00:46:00;28.00;80.30
47813;DHT22;34221;45.296;9.516;2022-07-24T00:46:18;28.00;80.40
47813;DHT22;34221;45.296;9.516;2022-07-24T00:46:35;28.00;80.60
47813;DHT22;34221;45.296;9.516;2022-07-24T00:46:51;28.00;80.50
47813;DHT22;34221;45.296;9.516;2022-07-24T00:47:06;28.00;80.60
47813;DHT22;34221;45.296;9.516;2022-07-24T00:47:21;28.00;80.60
47813;DHT22;34221;45.296;9.516;2022-07-24T00:47:36;28.10;80.80
47813;DHT22;34221;45.296;9.516;2022-07-24T00:47:52;28.00;80.40
47813;DHT22;34221;45.296;9.516;2022-07-24T00:48:07;28.00;80.40
47813;DHT22;34221;45.296;9.516;2022-07-24T00:48:22;28.00;80.40
47813;DHT22;34221;45.296;9.516;2022-07-24T00:48:37;28.00;80.40
47813;DHT22;34221;45.296;9.516;2022-07-24T00:48:52;28.00;80.50
47813;DHT22;34221;45.296;9.516;2022-07-24T00:49:09;28.00;80.50
47813;DHT22;34221;45.296;9.516;2022-07-24T00:49:25;28.00;80.60
47813;DHT22;34221;45.296;9.516;2022-07-24T00:49:40;28.00;80.50
47813;DHT22;34221;45.296;9.516;2022-07-24T00:49:55;28.00;80.50
47813;DHT22;34221;45.296;9.516;2022-07-24T00:50:10;28.00;80.60
47813;DHT22;34221;45.296;9.516;2022-07-24T00:50:26;28.10;80.60
47813;DHT22;34221;45.296;9.516;2022-07-24T00:50:41;28.00;80.50
47813;DHT22;34221;45.296;9.516;2022-07-24T00:50:57;28.00;80.80
47813;DHT22;34221;45.296;9.516;2022-07-24T00:51:13;28.00;80.70
47813;DHT22;34221;45.296;9.516;2022-07-24T00:51:28;28.00;80.50
47813;DHT22;34221;45.296;9.516;2022-07-24T00:51:45;28.00;80.50
47813;DHT22;34221;45.296;9.516;2022-07-24T00:52:02;28.00;80.60
47813;DHT22;34221;45.296;9.516;2022-07-24T00:52:17;28.00;80.70
47813;DHT22;34221;45.296;9.516;2022-07-24T00:52:32;27.90;80.70
47813;DHT22;34221;45.296;9.516;2022-07-24T00:52:47;28.00;80.90
47813;DHT22;34221;45.296;9.516;2022-07-24T00:53:03;28.00;80.90
47813;DHT22;34221;45.296;9.516;2022-07-24T00:53:18;28.00;80.90
47813;DHT22;34221;45.296;9.516;2022-07-24T00:53:34;28.00;80.80
47813;DHT22;34221;45.296;9.516;2022-07-24T00:53:49;28.00;80.80
47813;DHT22;34221;45.296;9.516;2022-07-24T00:54:05;28.00;80.80
47813;DHT22;34221;45.296;9.516;2022-07-24T00:54:22;28.00;80.70
47813;DHT22;34221;45.296;9.516;2022-07-24T00:54:38;27.90;80.70
47813;DHT22;34221;45.296;9.516;2022-07-24T00:54:53;28.00;80.90
47813;DHT22;34221;45.296;9.516;2022-07-24T00:55:08;28.00;80.90
47813;DHT22;34221;45.296;9.516;2022-07-24T00:55:24;28.00;80.90
47813;DHT22;34221;45.296;9.516;2022-07-24T00:55:42;28.00;81.10
47813;DHT22;34221;45.296;9.516;2022-07-24T00:55:57;28.00;81.10
47813;DHT22;34221;45.296;9.516;2022-07-24T00:56:13;28.00;81.10
47813;DHT22;34221;45.296;9.516;2022-07-24T00:56:28;28.00;81.10
47813;DHT22;34221;45.296;9.516;2022-07-24T00:56:44;28.00;81.50
47813;DHT22;34221;45.296;9.516;2022-07-24T00:57:00;28.00;81.50
47813;DHT22;34221;45.296;9.516;2022-07-24T00:57:15;28.00;81.80
47813;DHT22;34221;45.296;9.516;2022-07-24T00:57:30;28.00;81.40
47813;DHT22;34221;45.296;9.516;2022-07-24T00:57:45;28.00;81.40
47813;DHT22;34221;45.296;9.516;2022-07-24T00:58:03;28.00;81.20
47813;DHT22;34221;45.296;9.516;2022-07-24T00:58:18;28.10;81.10
47813;DHT22;34221;45.296;9.516;2022-07-24T00:58:33;28.00;80.90
47813;DHT22;34221;45.296;9.516;2022-07-24T00:58:49;28.00;81.10
47813;DHT22;34221;45.296;9.516;2022-07-24T00:59:04;28.00;80.90
47813;DHT22;34221;45.296;9.516;2022-07-24T00:59:19;28.00;80.80
47813;DHT22;34221;45.296;9.516;2022-07-24T00:59:34;28.00;80.80
47813;DHT22;34221;45.296;9.516;2022-07-24T00:59:49;28.00;80.90
47813;DHT22;34221;45.296;9.516;2022-07-24T01:00:06;28.00;80.90
47813;DHT22;34221;45.296;9.516;2022-07-24T01:00:22;28.00;81.00
47813;DHT22;34221;45.296;9.516;2022-07-24T01:00:37;27.90;81.00
47813;DHT22;34221;45.296;9.516;2022-07-24T01:00:52;28.00;81.10
47813;DHT22;34221;45.296;9.516;2022-07-24T01:01:09;28.00;81.20
47813;DHT22;34221;45.296;9.516;2022-07-24T01:01:24;28.00;81.40
47813;DHT22;34221;45.296;9.516;2022-07-24T01:01:39;28.00;81.30
47813;DHT22;34221;45.296;9.516;2022-07-24T01:01:54;28.00;81.30
47813;DHT22;34221;45.296;9.516;2022-07-24T01:02:09;28.00;81.20
47813;DHT22;34221;45.296;9.516;2022-07-24T01:02:26;28.00;81.30
47813;DHT22;34221;45.296;9.516;2022-07-24T01:02:41;28.00;81.30
47813;DHT22;34221;45.296;9.516;2022-07-24T01:02:57;28.00;81.30
47813;DHT22;34221;45.296;9.516;2022-07-24T01:03:12;28.00;81.60
47813;DHT22;34221;45.296;9.516;2022-07-24T01:03:26;28.00;81.70
47813;DHT22;34221;45.296;9.516;2022-07-24T01:03:42;28.00;81.30
47813;DHT22;34221;45.296;9.516;2022-07-24T01:03:57;28.00;81.20
47813;DHT22;34221;45.296;9.516;2022-07-24T01:04:13;28.00;81.00
47813;DHT22;34221;45.296;9.516;2022-07-24T01:04:28;28.00;81.10
47813;DHT22;34221;45.296;9.516;2022-07-24T01:04:43;28.00;81.20
47813;DHT22;34221;45.296;9.516;2022-07-24T01:04:58;28.00;81.10
47813;DHT22;34221;45.296;9.516;2022-07-24T01:05:13;28.00;81.10
47813;DHT22;34221;45.296;9.516;2022-07-24T01:05:28;28.00;81.10
47813;DHT22;34221;45.296;9.516;2022-07-24T01:05:43;28.00;81.10
47813;DHT22;34221;45.296;9.516;2022-07-24T01:05:59;28.00;81.20
47813;DHT22;34221;45.296;9.516;2022-07-24T01:06:14;28.00;81.10
47813;DHT22;34221;45.296;9.516;2022-07-24T01:06:29;28.00;81.10
47813;DHT22;34221;45.296;9.516;2022-07-24T01:06:45;28.00;81.40
47813;DHT22;34221;45.296;9.516;2022-07-24T01:07:00;28.00;81.20
47813;DHT22;34221;45.296;9.516;2022-07-24T01:07:16;28.00;81.10
47813;DHT22;34221;45.296;9.516;2022-07-24T01:07:31;28.00;81.10
47813;DHT22;34221;45.296;9.516;2022-07-24T01:07:47;28.00;81.20
47813;DHT22;34221;45.296;9.516;2022-07-24T01:08:01;28.00;81.30
47813;DHT22;34221;45.296;9.516;2022-07-24T01:08:17;28.00;81.30
47813;DHT22;34221;45.296;9.516;2022-07-24T01:08:33;28.00;81.20
47813;DHT22;34221;45.296;9.516;2022-07-24T01:08:49;28.00;81.30
47813;DHT22;34221;45.296;9.516;2022-07-24T01:09:04;28.00;81.30
47813;DHT22;34221;45.296;9.516;2022-07-24T01:09:19;28.00;81.30
47813;DHT22;34221;45.296;9.516;2022-07-24T01:09:35;28.00;81.40
47813;DHT22;34221;45.296;9.516;2022-07-24T01:09:51;28.00;81.40
47813;DHT22;34221;45.296;9.516;2022-07-24T01:10:07;28.00;81.40
47813;DHT22;34221;45.296;9.516;2022-07-24T01:10:22;28.00;81.60
47813;DHT22;34221;45.296;9.516;2022-07-24T01:10:37;28.00;81.40
47813;DHT22;34221;45.296;9.516;2022-07-24T01:10:53;27.90;81.30
47813;DHT22;34221;45.296;9.516;2022-07-24T01:11:08;28.00;81.40
47813;DHT22;34221;45.296;9.516;2022-07-24T01:11:27;27.90;81.30
47813;DHT22;34221;45.296;9.516;2022-07-24T01:11:43;27.90;81.40
47813;DHT22;34221;45.296;9.516;2022-07-24T01:11:58;27.90;81.40
47813;DHT22;34221;45.296;9.516;2022-07-24T01:12:14;27.90;81.50
47813;DHT22;34221;45.296;9.516;2022-07-24T01:12:31;27.90;81.50
47813;DHT22;34221;45.296;9.516;2022-07-24T01:12:47;27.90;81.70
47813;DHT22;34221;45.296;9.516;2022-07-24T01:13:02;27.90;81.80
47813;DHT22;34221;45.296;9.516;2022-07-24T01:13:17;27.90;81.80
47813;DHT22;34221;45.296;9.516;2022-07-24T01:13:32;27.90;81.80
47813;DHT22;34221;45.296;9.516;2022-07-24T01:13:48;27.90;81.90
47813;DHT22;34221;45.296;9.516;2022-07-24T01:14:04;27.90;82.00
47813;DHT22;34221;45.296;9.516;2022-07-24T01:14:21;27.90;81.90
47813;DHT22;34221;45.296;9.516;2022-07-24T01:14:37;27.80;81.90
47813;DHT22;34221;45.296;9.516;2022-07-24T01:14:53;27.80;82.60
47813;DHT22;34221;45.296;9.516;2022-07-24T01:15:10;27.80;82.10
47813;DHT22;34221;45.296;9.516;2022-07-24T01:15:25;27.80;82.10
47813;DHT22;34221;45.296;9.516;2022-07-24T01:15:40;27.80;82.20
47813;DHT22;34221;45.296;9.516;2022-07-24T01:15:56;27.80;82.20
47813;DHT22;34221;45.296;9.516;2022-07-24T01:16:11;27.80;82.20
47813;DHT22;34221;45.296;9.516;2022-07-24T01:16:26;27.80;82.10
47813;DHT22;34221;45.296;9.516;2022-07-24T01:16:41;27.80;82.20
47813;DHT22;34221;45.296;9.516;2022-07-24T01:16:57;27.80;82.20
47813;DHT22;34221;45.296;9.516;2022-07-24T01:17:12;27.80;82.30
47813;DHT22;34221;45.296;9.516;2022-07-24T01:17:31;27.80;82.70
47813;DHT22;34221;45.296;9.516;2022-07-24T01:17:48;27.80;82.30
47813;DHT22;34221;45.296;9.516;2022-07-24T01:18:03;27.90;82.40
47813;DHT22;34221;45.296;9.516;2022-07-24T01:18:18;27.80;82.30
47813;DHT22;34221;45.296;9.516;2022-07-24T01:18:34;27.90;82.40
47813;DHT22;34221;45.296;9.516;2022-07-24T01:18:49;27.90;82.40
47813;DHT22;34221;45.296;9.516;2022-07-24T01:19:04;27.90;82.60
47813;DHT22;34221;45.296;9.516;2022-07-24T01:19:19;27.90;82.40
47813;DHT22;34221;45.296;9.516;2022-07-24T01:19:34;27.90;82.40
47813;DHT22;34221;45.296;9.516;2022-07-24T01:19:49;27.90;82.40
47813;DHT22;34221;45.296;9.516;2022-07-24T01:20:06;27.90;82.40
47813;DHT22;34221;45.296;9.516;2022-07-24T01:20:21;27.90;82.30
47813;DHT22;34221;45.296;9.516;2022-07-24T01:20:38;27.90;82.30
47813;DHT22;34221;45.296;9.516;2022-07-24T01:20:53;27.90;82.50
47813;DHT22;34221;45.296;9.516;2022-07-24T01:21:10;27.90;82.50
47813;DHT22;34221;45.296;9.516;2022-07-24T01:21:25;27.80;82.40
47813;DHT22;34221;45.296;9.516;2022-07-24T01:21:47;27.90;82.50
47813;DHT22;34221;45.296;9.516;2022-07-24T01:22:03;27.80;82.50
47813;DHT22;34221;45.296;9.516;2022-07-24T01:22:19;27.80;82.50
47813;DHT22;34221;45.296;9.516;2022-07-24T01:22:34;27.80;82.50
47813;DHT22;34221;45.296;9.516;2022-07-24T01:22:49;27.80;82.50
47813;DHT22;34221;45.296;9.516;2022-07-24T01:23:04;27.80;82.60
47813;DHT22;34221;45.296;9.516;2022-07-24T01:23:19;27.80;82.70
47813;DHT22;34221;45.296;9.516;2022-07-24T01:23:35;27.80;82.60
47813;DHT22;34221;45.296;9.516;2022-07-24T01:23:49;27.80;82.70
47813;DHT22;34221;45.296;9.516;2022-07-24T01:24:05;27.80;82.70
47813;DHT22;34221;45.296;9.516;2022-07-24T01:24:21;27.80;82.60
47813;DHT22;34221;45.296;9.516;2022-07-24T01:24:36;27.80;82.60
47813;DHT22;34221;45.296;9.516;2022-07-24T01:24:51;27.80;82.70
47813;DHT22;34221;45.296;9.516;2022-07-24T01:25:06;27.80;82.80
47813;DHT22;34221;45.296;9.516;2022-07-24T01:25:22;27.80;82.80
47813;DHT22;34221;45.296;9.516;2022-07-24T01:25:37;27.80;83.00
47813;DHT22;34221;45.296;9.516;2022-07-24T01:25:51;27.90;82.80
47813;DHT22;34221;45.296;9.516;2022-07-24T01:26:07;27.80;82.70
47813;DHT22;34221;45.296;9.516;2022-07-24T01:26:23;27.80;82.80
47813;DHT22;34221;45.296;9.516;2022-07-24T01:26:38;27.80;82.80
47813;DHT22;34221;45.296;9.516;2022-07-24T01:26:53;27.80;82.80
47813;DHT22;34221;45.296;9.516;2022-07-24T01:27:08;27.80;82.80
47813;DHT22;34221;45.296;9.516;2022-07-24T01:27:24;27.80;82.90
47813;DHT22;34221;45.296;9.516;2022-07-24T01:27:39;27.80;82.90
47813;DHT22;34221;45.296;9.516;2022-07-24T01:27:54;27.80;83.00
47813;DHT22;34221;45.296;9.516;2022-07-24T01:28:09;27.80;83.00
47813;DHT22;34221;45.296;9.516;2022-07-24T01:28:24;27.80;83.10
47813;DHT22;34221;45.296;9.516;2022-07-24T01:28:39;27.80;83.10
47813;DHT22;34221;45.296;9.516;2022-07-24T01:28:54;27.80;83.10
47813;DHT22;34221;45.296;9.516;2022-07-24T01:29:10;27.80;83.10
47813;DHT22;34221;45.296;9.516;2022-07-24T01:29:25;27.80;83.10
47813;DHT22;34221;45.296;9.516;2022-07-24T01:29:40;27.80;83.00
47813;DHT22;34221;45.296;9.516;2022-07-24T01:29:55;27.80;83.20
47813;DHT22;34221;45.296;9.516;2022-07-24T01:30:10;27.80;83.40
47813;DHT22;34221;45.296;9.516;2022-07-24T01:30:25;27.80;83.30
47813;DHT22;34221;45.296;9.516;2022-07-24T01:30:40;27.80;83.10
47813;DHT22;34221;45.296;9.516;2022-07-24T01:30:55;27.80;83.50
47813;DHT22;34221;45.296;9.516;2022-07-24T01:31:10;27.80;83.10
47813;DHT22;34221;45.296;9.516;2022-07-24T01:31:25;27.80;83.00
47813;DHT22;34221;45.296;9.516;2022-07-24T01:31:40;27.80;83.20
47813;DHT22;34221;45.296;9.516;2022-07-24T01:31:55;27.80;83.20
47813;DHT22;34221;45.296;9.516;2022-07-24T01:32:10;27.80;83.30
47813;DHT22;34221;45.296;9.516;2022-07-24T01:32:25;27.80;83.40
47813;DHT22;34221;45.296;9.516;2022-07-24T01:32:40;27.80;83.30
47813;DHT22;34221;45.296;9.516;2022-07-24T01:32:55;27.80;83.30
47813;DHT22;34221;45.296;9.516;2022-07-24T01:33:10;27.80;83.40
47813;DHT22;34221;45.296;9.516;2022-07-24T01:33:25;27.80;83.60
47813;DHT22;34221;45.296;9.516;2022-07-24T01:33:40;27.80;83.40
47813;DHT22;34221;45.296;9.516;2022-07-24T01:34:15;27.80;83.40
47813;DHT22;34221;45.296;9.516;2022-07-24T01:34:30;27.80;83.30
47813;DHT22;34221;45.296;9.516;2022-07-24T01:34:45;27.80;83.50
47813;DHT22;34221;45.296;9.516;2022-07-24T01:35:00;27.80;83.50
47813;DHT22;34221;45.296;9.516;2022-07-24T01:35:15;27.80;83.40
47813;DHT22;34221;45.296;9.516;2022-07-24T01:35:30;27.80;83.40
47813;DHT22;34221;45.296;9.516;2022-07-24T01:35:46;27.80;83.40
47813;DHT22;34221;45.296;9.516;2022-07-24T01:36:01;27.90;83.40
47813;DHT22;34221;45.296;9.516;2022-07-24T01:36:16;27.90;83.30
47813;DHT22;34221;45.296;9.516;2022-07-24T01:36:31;27.80;83.30
47813;DHT22;34221;45.296;9.516;2022-07-24T01:36:46;27.80;83.30
47813;DHT22;34221;45.296;9.516;2022-07-24T01:37:02;27.80;83.30
47813;DHT22;34221;45.296;9.516;2022-07-24T01:37:17;27.80;83.30
47813;DHT22;34221;45.296;9.516;2022-07-24T01:37:31;27.80;83.40
47813;DHT22;34221;45.296;9.516;2022-07-24T01:37:47;27.90;83.50